createdAt,value
2022-08-01T00:00:29.496Z,93.00
2022-08-01T00:01:31.706Z,93.10
2022-08-01T00:02:36.144Z,93.10
2022-08-01T00:03:38.291Z,93.10
2022-08-01T00:04:41.426Z,93.20
2022-08-01T00:05:45.392Z,93.40
2022-08-01T00:06:48.405Z,93.40
2022-08-01T00:07:50.470Z,93.60
2022-08-01T00:08:53.429Z,93.60
2022-08-01T00:09:56.474Z,93.80
2022-08-01T00:11:02.624Z,94.20
2022-08-01T00:12:07.033Z,94.20
2022-08-01T00:13:09.168Z,94.30
2022-08-01T00:14:13.627Z,94.40
2022-08-01T00:15:17.641Z,94.50
2022-08-01T00:16:23.547Z,94.60
2022-08-01T00:17:25.572Z,94.70
2022-08-01T00:18:30.235Z,94.80
2022-08-01T00:19:32.309Z,95.10
2022-08-01T00:20:35.399Z,95.10
2022-08-01T00:21:37.402Z,95.30
2022-08-01T00:22:40.595Z,95.30
2022-08-01T00:23:42.788Z,95.30
2022-08-01T00:24:45.726Z,95.50
2022-08-01T00:25:47.662Z,96.00
2022-08-01T00:26:50.613Z,95.50
2022-08-01T00:27:52.755Z,95.70
2022-08-01T00:28:56.583Z,95.70
2022-08-01T00:30:12.761Z,95.90
2022-08-01T00:31:17.531Z,96.10
2022-08-01T00:32:19.847Z,96.40
2022-08-01T00:33:23.206Z,96.40
2022-08-01T00:34:27.496Z,96.30
2022-08-01T00:35:29.626Z,96.40
2022-08-01T00:36:32.789Z,96.60
2022-08-01T00:37:34.827Z,96.80
2022-08-01T00:38:38.166Z,96.70
2022-08-01T00:39:40.098Z,96.80
2022-08-01T00:40:43.075Z,96.90
2022-08-01T00:41:45.025Z,97.10
2022-08-01T00:42:48.036Z,97.30
2022-08-01T00:43:51.013Z,97.50
2022-08-01T00:44:53.118Z,97.60
2022-08-01T00:45:56.170Z,97.80
2022-08-01T00:46:58.208Z,97.80
2022-08-01T00:48:01.203Z,98.00
2022-08-01T00:49:05.043Z,98.30
2022-08-01T00:50:13.789Z,98.30
2022-08-01T00:51:17.998Z,98.60
2022-08-01T00:52:20.301Z,98.30
2022-08-01T00:53:23.262Z,98.60
2022-08-01T00:54:31.851Z,98.80
2022-08-01T00:55:35.237Z,98.90
2022-08-01T00:56:37.471Z,99.00
2022-08-01T00:58:02.833Z,98.90
2022-08-01T00:59:07.826Z,99.10
2022-08-01T01:00:11.769Z,99.30
2022-08-01T01:01:15.436Z,99.30
2022-08-01T01:02:18.985Z,99.50
2022-08-01T01:03:26.380Z,99.70
2022-08-01T01:04:35.836Z,99.80
2022-08-01T01:05:50.840Z,99.90
2022-08-01T01:07:01.919Z,99.90
2022-08-01T01:08:09.257Z,99.90
2022-08-01T01:09:24.775Z,99.90
2022-08-01T01:10:32.311Z,99.90
2022-08-01T01:11:44.571Z,99.90
2022-08-01T01:12:53.173Z,99.90
2022-08-01T01:14:03.620Z,99.90
2022-08-01T01:15:09.440Z,99.90
2022-08-01T01:16:16.345Z,99.90
2022-08-01T01:17:31.281Z,99.90
2022-08-01T01:18:49.692Z,99.90
2022-08-01T01:19:55.245Z,99.90
2022-08-01T01:21:07.197Z,99.90
2022-08-01T01:22:28.247Z,99.90
2022-08-01T01:23:48.195Z,99.90
2022-08-01T01:25:09.035Z,99.90
2022-08-01T01:26:25.365Z,99.90
2022-08-01T01:27:40.464Z,99.90
2022-08-01T01:28:57.478Z,99.90
2022-08-01T01:30:01.400Z,99.90
2022-08-01T01:31:10.814Z,99.90
2022-08-01T01:32:20.347Z,99.90
2022-08-01T01:33:34.889Z,99.90
2022-08-01T01:34:40.140Z,99.90
2022-08-01T01:35:47.548Z,99.90
2022-08-01T01:36:52.435Z,99.90
2022-08-01T01:37:58.939Z,99.90
2022-08-01T01:39:03.361Z,99.90
2022-08-01T01:40:07.881Z,99.90
2022-08-01T01:41:13.090Z,99.90
2022-08-01T01:42:16.986Z,99.90
2022-08-01T01:43:33.215Z,99.90
2022-08-01T01:44:38.285Z,99.90
2022-08-01T01:45:42.612Z,99.90
2022-08-01T01:46:46.951Z,99.90
2022-08-01T01:47:49.945Z,99.90
2022-08-01T01:48:55.150Z,99.90
2022-08-01T01:50:01.977Z,99.90
2022-08-01T01:51:05.991Z,99.90
2022-08-01T01:52:10.348Z,99.90
2022-08-01T01:53:15.122Z,99.90
2022-08-01T01:54:19.572Z,99.90
2022-08-01T01:55:24.949Z,99.90
2022-08-01T01:56:29.765Z,99.90
2022-08-01T01:57:33.436Z,99.90
2022-08-01T01:58:38.589Z,99.90
2022-08-01T01:59:43.107Z,99.90
2022-08-01T02:00:48.603Z,99.90
2022-08-01T02:02:08.729Z,99.90
2022-08-01T02:03:13.882Z,99.90
2022-08-01T02:04:17.282Z,99.90
2022-08-01T02:05:20.927Z,99.90
2022-08-01T02:06:25.083Z,99.90
2022-08-01T02:07:29.511Z,99.90
2022-08-01T02:08:33.946Z,99.90
2022-08-01T02:09:39.331Z,99.90
2022-08-01T02:10:42.315Z,99.90
2022-08-01T02:11:59.145Z,99.90
2022-08-01T02:13:11.946Z,99.90
2022-08-01T02:14:15.093Z,99.90
2022-08-01T02:15:21.526Z,99.90
2022-08-01T02:16:27.283Z,99.90
2022-08-01T02:17:31.405Z,99.90
2022-08-01T02:18:33.772Z,99.90
2022-08-01T02:19:38.040Z,99.90
2022-08-01T02:20:40.914Z,99.90
2022-08-01T02:21:49.633Z,99.90
2022-08-01T02:22:57.150Z,99.90
2022-08-01T02:24:10.209Z,99.90
2022-08-01T02:25:19.644Z,99.90
2022-08-01T02:26:24.054Z,99.90
2022-08-01T02:27:30.589Z,99.90
2022-08-01T02:28:36.589Z,99.90
2022-08-01T02:29:44.700Z,99.90
2022-08-01T02:30:50.850Z,99.90
2022-08-01T02:31:55.931Z,99.90
2022-08-01T02:33:03.034Z,99.90
2022-08-01T02:34:09.667Z,99.90
2022-08-01T02:35:19.141Z,99.90
2022-08-01T02:36:30.324Z,99.90
2022-08-01T02:37:44.293Z,99.90
2022-08-01T02:38:49.623Z,99.90
2022-08-01T02:39:55.521Z,99.90
2022-08-01T02:40:59.843Z,99.90
2022-08-01T02:42:08.715Z,99.90
2022-08-01T02:43:13.437Z,99.90
2022-08-01T02:44:23.651Z,99.90
2022-08-01T02:45:27.922Z,99.90
2022-08-01T02:46:39.031Z,99.90
2022-08-01T02:47:43.498Z,99.90
2022-08-01T02:48:49.384Z,99.90
2022-08-01T02:49:54.522Z,99.90
2022-08-01T02:51:02.851Z,99.90
2022-08-01T02:52:12.513Z,99.90
2022-08-01T02:53:17.570Z,99.90
2022-08-01T02:54:23.187Z,99.90
2022-08-01T02:55:27.135Z,99.90
2022-08-01T02:56:36.576Z,99.90
2022-08-01T02:57:51.653Z,99.90
2022-08-01T02:58:56.481Z,99.90
2022-08-01T03:00:00.022Z,99.90
2022-08-01T03:01:04.038Z,99.90
2022-08-01T03:02:10.663Z,99.90
2022-08-01T03:03:14.397Z,99.90
2022-08-01T03:04:19.974Z,99.90
2022-08-01T03:05:24.600Z,99.90
2022-08-01T03:06:28.223Z,99.90
2022-08-01T03:07:34.259Z,99.90
2022-08-01T03:08:38.548Z,99.90
2022-08-01T03:09:44.908Z,99.90
2022-08-01T03:10:49.153Z,99.90
2022-08-01T03:11:52.652Z,99.90
2022-08-01T03:12:56.251Z,99.90
2022-08-01T03:14:01.941Z,99.90
2022-08-01T03:15:05.803Z,99.90
2022-08-01T03:16:10.851Z,99.90
2022-08-01T03:17:15.522Z,99.90
2022-08-01T03:18:20.570Z,99.90
2022-08-01T03:19:25.029Z,99.90
2022-08-01T03:20:31.917Z,99.90
2022-08-01T03:21:35.506Z,99.90
2022-08-01T03:22:41.173Z,99.90
2022-08-01T03:23:45.199Z,99.90
2022-08-01T03:24:51.542Z,99.90
2022-08-01T03:25:54.117Z,99.90
2022-08-01T03:26:59.708Z,99.90
2022-08-01T03:28:05.278Z,99.90
2022-08-01T03:29:11.070Z,99.90
2022-08-01T03:30:14.665Z,99.90
2022-08-01T03:31:18.926Z,99.90
2022-08-01T03:32:23.149Z,99.90
2022-08-01T03:33:26.392Z,99.90
2022-08-01T03:34:28.954Z,99.90
2022-08-01T03:35:35.476Z,99.90
2022-08-01T03:36:49.929Z,99.90
2022-08-01T03:38:15.259Z,99.90
2022-08-01T03:39:20.515Z,99.90
2022-08-01T03:40:27.117Z,99.90
2022-08-01T03:41:35.800Z,99.90
2022-08-01T03:42:44.119Z,99.90
2022-08-01T03:43:53.310Z,99.90
2022-08-01T03:44:59.285Z,99.90
2022-08-01T03:46:08.698Z,99.90
2022-08-01T03:47:13.882Z,99.90
2022-08-01T03:48:19.319Z,99.90
2022-08-01T03:49:27.943Z,99.90
2022-08-01T03:50:34.750Z,99.90
2022-08-01T03:51:40.004Z,99.90
2022-08-01T03:52:46.083Z,99.90
2022-08-01T03:53:50.610Z,99.90
2022-08-01T03:54:56.591Z,99.90
2022-08-01T03:56:01.762Z,99.90
2022-08-01T03:57:04.810Z,99.90
2022-08-01T03:58:10.068Z,99.90
2022-08-01T03:59:12.480Z,99.90
2022-08-01T04:00:19.494Z,99.90
2022-08-01T04:01:23.369Z,99.90
2022-08-01T04:02:30.669Z,99.90
2022-08-01T04:03:42.002Z,99.90
2022-08-01T04:04:47.260Z,99.90
2022-08-01T04:05:49.526Z,99.90
2022-08-01T04:06:54.980Z,99.90
2022-08-01T04:07:57.397Z,99.90
2022-08-01T04:09:00.659Z,99.90
2022-08-01T04:10:02.920Z,99.90
2022-08-01T04:11:06.567Z,99.90
2022-08-01T04:12:12.281Z,99.90
2022-08-01T04:13:15.687Z,99.90
2022-08-01T04:14:17.843Z,99.90
2022-08-01T04:15:22.041Z,99.90
2022-08-01T04:16:24.161Z,99.90
2022-08-01T04:17:27.262Z,99.90
2022-08-01T04:18:29.380Z,99.90
2022-08-01T04:19:33.701Z,99.90
2022-08-01T04:20:36.615Z,99.90
2022-08-01T04:21:39.936Z,99.90
2022-08-01T04:22:43.321Z,99.90
2022-08-01T04:23:47.455Z,99.90
2022-08-01T04:24:59.177Z,99.90
2022-08-01T04:26:05.239Z,99.90
2022-08-01T04:27:13.480Z,99.90
2022-08-01T04:28:17.767Z,99.90
2022-08-01T04:29:22.633Z,99.90
2022-08-01T04:30:28.639Z,99.90
2022-08-01T04:31:32.820Z,99.90
2022-08-01T04:32:39.086Z,99.90
2022-08-01T04:33:46.342Z,99.90
2022-08-01T04:34:51.462Z,99.90
2022-08-01T04:36:04.149Z,99.90
2022-08-01T04:37:10.513Z,99.90
2022-08-01T04:38:19.542Z,99.90
2022-08-01T04:39:23.039Z,99.90
2022-08-01T04:40:28.074Z,99.90
2022-08-01T04:41:31.653Z,99.90
2022-08-01T04:42:35.137Z,99.90
2022-08-01T04:43:37.865Z,99.90
2022-08-01T04:44:41.483Z,99.90
2022-08-01T04:45:44.724Z,99.90
2022-08-01T04:46:49.390Z,99.90
2022-08-01T04:47:53.046Z,99.90
2022-08-01T04:48:56.957Z,99.90
2022-08-01T04:50:00.752Z,99.90
2022-08-01T04:51:03.879Z,99.90
2022-08-01T04:52:07.431Z,99.90
2022-08-01T04:53:15.284Z,99.90
2022-08-01T04:54:17.336Z,99.90
2022-08-01T04:55:20.561Z,99.90
2022-08-01T04:56:22.775Z,99.90
2022-08-01T04:57:25.766Z,99.90
2022-08-01T04:58:28.720Z,99.90
2022-08-01T04:59:40.560Z,99.90
2022-08-01T05:00:43.639Z,99.90
2022-08-01T05:01:50.138Z,99.90
2022-08-01T05:02:53.200Z,99.90
2022-08-01T05:03:57.499Z,99.90
2022-08-01T05:05:01.982Z,99.90
2022-08-01T05:06:04.705Z,99.90
2022-08-01T05:07:08.752Z,99.90
2022-08-01T05:08:11.172Z,99.90
2022-08-01T05:09:14.238Z,99.90
2022-08-01T05:10:16.405Z,99.90
2022-08-01T05:11:19.558Z,99.90
2022-08-01T05:12:24.845Z,99.90
2022-08-01T05:13:27.911Z,99.90
2022-08-01T05:14:33.102Z,99.90
2022-08-01T05:15:37.565Z,99.90
2022-08-01T05:16:39.578Z,99.90
2022-08-01T05:17:43.707Z,99.90
2022-08-01T05:18:45.667Z,99.90
2022-08-01T05:19:50.969Z,99.90
2022-08-01T05:20:54.359Z,99.90
2022-08-01T05:22:00.185Z,99.90
2022-08-01T05:23:03.087Z,99.90
2022-08-01T05:24:06.709Z,99.90
2022-08-01T05:25:09.015Z,99.90
2022-08-01T05:26:14.743Z,99.90
2022-08-01T05:27:17.013Z,99.90
2022-08-01T05:28:22.576Z,99.90
2022-08-01T05:29:25.079Z,99.90
2022-08-01T05:30:28.079Z,99.90
2022-08-01T05:31:30.078Z,99.90
2022-08-01T05:32:33.091Z,99.90
2022-08-01T05:33:35.040Z,99.90
2022-08-01T05:34:38.254Z,99.90
2022-08-01T05:35:48.222Z,99.90
2022-08-01T05:36:57.763Z,99.90
2022-08-01T05:38:01.071Z,99.90
2022-08-01T05:39:03.315Z,99.90
2022-08-01T05:40:07.692Z,99.90
2022-08-01T05:41:09.803Z,99.90
2022-08-01T05:42:12.942Z,99.90
2022-08-01T05:43:14.938Z,99.90
2022-08-01T05:44:18.059Z,99.90
2022-08-01T05:45:21.315Z,99.90
2022-08-01T05:46:23.751Z,99.90
2022-08-01T05:47:30.516Z,99.90
2022-08-01T05:48:32.655Z,99.90
2022-08-01T05:49:35.774Z,99.90
2022-08-01T05:50:37.866Z,99.90
2022-08-01T05:51:40.853Z,99.90
2022-08-01T05:52:44.202Z,99.90
2022-08-01T05:53:48.357Z,99.90
2022-08-01T05:54:50.456Z,99.90
2022-08-01T05:55:53.414Z,99.90
2022-08-01T05:56:59.168Z,99.90
2022-08-01T05:58:02.272Z,99.90
2022-08-01T05:59:04.569Z,99.90
2022-08-01T06:00:09.142Z,99.90
2022-08-01T06:01:13.935Z,99.90
2022-08-01T06:02:16.991Z,99.90
2022-08-01T06:03:19.660Z,99.90
2022-08-01T06:04:22.778Z,99.90
2022-08-01T06:05:24.896Z,99.90
2022-08-01T06:06:28.357Z,99.90
2022-08-01T06:07:30.836Z,99.90
2022-08-01T06:08:35.432Z,99.90
2022-08-01T06:09:37.549Z,99.90
2022-08-01T06:10:40.546Z,99.90
2022-08-01T06:11:43.739Z,99.90
2022-08-01T06:12:45.742Z,99.90
2022-08-01T06:13:49.069Z,99.90
2022-08-01T06:14:51.238Z,99.90
2022-08-01T06:15:54.244Z,99.90
2022-08-01T06:16:56.663Z,99.90
2022-08-01T06:17:59.694Z,99.90
2022-08-01T06:19:01.723Z,99.90
2022-08-01T06:20:05.795Z,99.90
2022-08-01T06:21:07.821Z,99.90
2022-08-01T06:22:10.789Z,99.90
2022-08-01T06:23:31.485Z,99.90
2022-08-01T06:24:36.910Z,99.90
2022-08-01T06:25:39.155Z,99.90
2022-08-01T06:26:42.305Z,99.90
2022-08-01T06:27:44.494Z,99.90
2022-08-01T06:28:48.022Z,99.90
2022-08-01T06:29:53.293Z,99.90
2022-08-01T06:30:57.207Z,99.90
2022-08-01T06:32:00.413Z,99.90
2022-08-01T06:33:02.821Z,99.90
2022-08-01T06:34:05.838Z,99.90
2022-08-01T06:35:08.705Z,99.90
2022-08-01T06:36:11.747Z,99.90
2022-08-01T06:37:14.948Z,99.90
2022-08-01T06:38:17.968Z,99.90
2022-08-01T06:39:20.992Z,99.90
2022-08-01T06:40:26.009Z,99.90
2022-08-01T06:41:27.989Z,99.90
2022-08-01T06:42:32.530Z,99.90
2022-08-01T06:43:35.604Z,99.90
2022-08-01T06:44:37.647Z,99.90
2022-08-01T06:45:41.071Z,99.90
2022-08-01T06:46:45.175Z,99.90
2022-08-01T06:47:48.809Z,99.90
2022-08-01T06:48:54.150Z,99.90
2022-08-01T06:49:56.178Z,99.90
2022-08-01T06:51:09.867Z,99.90
2022-08-01T06:52:12.129Z,99.90
2022-08-01T06:53:15.154Z,99.90
2022-08-01T06:54:17.281Z,99.90
2022-08-01T06:55:21.024Z,99.90
2022-08-01T06:56:25.743Z,99.90
2022-08-01T06:57:27.973Z,99.90
2022-08-01T06:58:31.823Z,99.90
2022-08-01T06:59:35.314Z,99.90
2022-08-01T07:00:41.505Z,99.90
2022-08-01T07:01:44.547Z,99.90
2022-08-01T07:02:46.585Z,99.90
2022-08-01T07:03:53.320Z,99.90
2022-08-01T07:05:01.051Z,99.90
2022-08-01T07:06:04.382Z,99.90
2022-08-01T07:07:07.341Z,99.90
2022-08-01T07:08:11.368Z,99.90
2022-08-01T07:09:14.536Z,99.90
2022-08-01T07:10:18.133Z,99.90
2022-08-01T07:11:26.434Z,99.90
2022-08-01T07:12:28.737Z,99.90
2022-08-01T07:13:36.695Z,99.90
2022-08-01T07:14:47.375Z,99.90
2022-08-01T07:15:50.524Z,99.90
2022-08-01T07:16:53.579Z,99.90
2022-08-01T07:17:57.938Z,99.90
2022-08-01T07:18:59.987Z,99.90
2022-08-01T07:20:03.818Z,99.90
2022-08-01T07:21:06.035Z,99.90
2022-08-01T07:22:23.207Z,99.90
2022-08-01T07:23:33.776Z,99.90
2022-08-01T07:24:36.123Z,99.90
2022-08-01T07:25:39.331Z,99.90
2022-08-01T07:26:55.233Z,99.90
2022-08-01T07:27:58.452Z,99.90
2022-08-01T07:29:01.607Z,99.90
2022-08-01T07:30:06.047Z,99.90
2022-08-01T07:31:09.278Z,99.90
2022-08-01T07:32:11.303Z,99.90
2022-08-01T07:33:14.603Z,99.90
2022-08-01T07:34:16.671Z,99.90
2022-08-01T07:35:20.006Z,99.90
2022-08-01T07:36:22.459Z,99.90
2022-08-01T07:37:48.162Z,99.90
2022-08-01T07:38:49.588Z,99.90
2022-08-01T07:39:52.434Z,99.90
2022-08-01T07:40:55.943Z,99.90
2022-08-01T07:42:07.406Z,99.90
2022-08-01T07:43:11.172Z,99.90
2022-08-01T07:44:13.175Z,99.90
2022-08-01T07:45:16.958Z,99.90
2022-08-01T07:46:19.894Z,99.90
2022-08-01T07:47:26.068Z,99.90
2022-08-01T07:48:29.892Z,99.90
2022-08-01T07:49:34.935Z,99.90
2022-08-01T07:50:42.457Z,99.90
2022-08-01T07:52:02.737Z,99.90
2022-08-01T07:53:08.271Z,99.90
2022-08-01T07:54:10.379Z,99.90
2022-08-01T07:55:16.230Z,99.90
2022-08-01T07:56:18.849Z,99.90
2022-08-01T07:57:23.182Z,99.90
2022-08-01T07:58:25.522Z,99.90
2022-08-01T07:59:28.778Z,99.90
2022-08-01T08:00:32.191Z,99.90
2022-08-01T08:01:34.386Z,99.90
2022-08-01T08:02:37.761Z,99.90
2022-08-01T08:03:40.764Z,99.90
2022-08-01T08:04:47.119Z,99.90
2022-08-01T08:05:59.727Z,99.90
2022-08-01T08:07:03.920Z,99.90
2022-08-01T08:08:07.816Z,99.90
2022-08-01T08:09:10.582Z,99.90
2022-08-01T08:10:13.739Z,99.90
2022-08-01T08:11:15.733Z,99.90
2022-08-01T08:12:18.717Z,99.90
2022-08-01T08:13:33.401Z,99.90
2022-08-01T08:14:36.533Z,99.90
2022-08-01T08:15:39.525Z,99.90
2022-08-01T08:16:42.529Z,99.90
2022-08-01T08:17:45.654Z,99.90
2022-08-01T08:18:57.198Z,99.90
2022-08-01T08:20:00.140Z,99.90
2022-08-01T08:21:06.485Z,99.90
2022-08-01T08:22:10.771Z,99.90
2022-08-01T08:23:42.545Z,99.90
2022-08-01T08:24:47.172Z,99.90
2022-08-01T08:25:49.310Z,99.90
2022-08-01T08:26:55.707Z,99.90
2022-08-01T08:27:58.638Z,99.90
2022-08-01T08:29:01.922Z,99.90
2022-08-01T08:30:06.841Z,99.90
2022-08-01T08:31:25.273Z,99.90
2022-08-01T08:32:32.036Z,99.90
2022-08-01T08:33:34.006Z,99.90
2022-08-01T08:34:37.128Z,99.90
2022-08-01T08:35:53.862Z,99.90
2022-08-01T08:36:58.884Z,99.90
2022-08-01T08:38:01.188Z,99.90
2022-08-01T08:39:05.603Z,99.90
2022-08-01T08:40:09.975Z,99.90
2022-08-01T08:41:12.370Z,99.90
2022-08-01T08:42:15.370Z,99.90
2022-08-01T08:43:17.471Z,99.90
2022-08-01T08:44:22.063Z,99.90
2022-08-01T08:45:30.885Z,99.90
2022-08-01T08:46:49.753Z,99.90
2022-08-01T08:47:53.889Z,99.90
2022-08-01T08:48:57.122Z,99.90
2022-08-01T08:50:00.858Z,99.90
2022-08-01T08:51:03.510Z,99.90
2022-08-01T08:52:09.287Z,99.90
2022-08-01T08:53:18.599Z,99.90
2022-08-01T08:54:29.541Z,99.90
2022-08-01T08:55:34.756Z,99.90
2022-08-01T08:56:59.403Z,99.90
2022-08-01T08:58:03.464Z,99.90
2022-08-01T08:59:08.173Z,99.90
2022-08-01T09:00:15.001Z,99.90
2022-08-01T09:01:18.571Z,99.90
2022-08-01T09:02:26.074Z,99.90
2022-08-01T09:03:28.256Z,99.90
2022-08-01T09:04:31.401Z,99.90
2022-08-01T09:05:39.302Z,99.90
2022-08-01T09:06:43.355Z,99.90
2022-08-01T09:07:45.389Z,99.90
2022-08-01T09:08:48.916Z,99.90
2022-08-01T09:09:52.319Z,99.90
2022-08-01T09:10:54.748Z,99.90
2022-08-01T09:11:58.287Z,99.90
2022-08-01T09:13:05.404Z,99.90
2022-08-01T09:14:11.068Z,99.90
2022-08-01T09:15:15.478Z,99.90
2022-08-01T09:16:19.397Z,99.90
2022-08-01T09:17:22.624Z,99.90
2022-08-01T09:18:33.130Z,99.90
2022-08-01T09:19:42.028Z,99.90
2022-08-01T09:20:44.197Z,99.90
2022-08-01T09:21:58.823Z,99.90
2022-08-01T09:23:02.382Z,99.90
2022-08-01T09:24:06.971Z,99.90
2022-08-01T09:25:12.195Z,99.90
2022-08-01T09:26:17.057Z,99.90
2022-08-01T09:27:26.375Z,99.90
2022-08-01T09:28:29.889Z,99.90
2022-08-01T09:29:37.299Z,99.90
2022-08-01T09:30:41.829Z,99.90
2022-08-01T09:31:48.121Z,99.90
2022-08-01T09:33:01.458Z,99.90
2022-08-01T09:34:04.997Z,99.90
2022-08-01T09:35:31.013Z,99.90
2022-08-01T09:36:52.212Z,99.90
2022-08-01T09:38:13.966Z,99.90
2022-08-01T09:39:17.249Z,99.90
2022-08-01T09:40:19.446Z,99.90
2022-08-01T09:41:37.895Z,99.90
2022-08-01T09:42:43.644Z,99.90
2022-08-01T09:43:52.224Z,99.90
2022-08-01T09:44:59.986Z,99.90
2022-08-01T09:46:13.547Z,99.90
2022-08-01T09:47:17.549Z,99.90
2022-08-01T09:48:29.086Z,99.90
2022-08-01T09:49:49.854Z,99.90
2022-08-01T09:50:54.964Z,99.90
2022-08-01T09:52:00.888Z,99.90
2022-08-01T09:53:04.175Z,99.90
2022-08-01T09:54:09.689Z,99.90
2022-08-01T09:55:12.485Z,99.90
2022-08-01T09:56:16.442Z,99.90
2022-08-01T09:57:21.853Z,99.90
2022-08-01T09:58:24.177Z,99.90
2022-08-01T09:59:57.079Z,99.90
2022-08-01T10:01:01.587Z,99.90
2022-08-01T10:02:05.962Z,99.90
2022-08-01T10:03:25.768Z,99.90
2022-08-01T10:04:29.462Z,99.90
2022-08-01T10:05:32.839Z,99.90
2022-08-01T10:06:43.671Z,99.90
2022-08-01T10:07:58.979Z,99.90
2022-08-01T10:09:01.122Z,99.90
2022-08-01T10:10:14.569Z,99.90
2022-08-01T10:11:17.951Z,99.90
2022-08-01T10:12:25.751Z,99.90
2022-08-01T10:13:36.812Z,99.90
2022-08-01T10:14:41.411Z,99.90
2022-08-01T10:15:43.731Z,99.90
2022-08-01T10:16:53.865Z,99.90
2022-08-01T10:18:04.002Z,99.90
2022-08-01T10:19:14.672Z,99.90
2022-08-01T10:20:30.569Z,99.90
2022-08-01T10:21:56.899Z,99.90
2022-08-01T10:23:05.638Z,99.90
2022-08-01T10:24:13.445Z,99.90
2022-08-01T10:25:19.106Z,99.90
2022-08-01T10:26:42.901Z,99.90
2022-08-01T10:27:47.145Z,99.90
2022-08-01T10:28:51.476Z,99.90
2022-08-01T10:30:08.518Z,99.90
2022-08-01T10:31:30.610Z,99.90
2022-08-01T10:32:35.924Z,99.90
2022-08-01T10:33:50.690Z,99.90
2022-08-01T10:34:56.319Z,99.90
2022-08-01T10:35:59.150Z,99.90
2022-08-01T10:37:05.559Z,99.90
2022-08-01T10:38:10.727Z,99.90
2022-08-01T10:39:20.083Z,99.90
2022-08-01T10:40:31.412Z,99.90
2022-08-01T10:41:36.141Z,99.90
2022-08-01T10:42:45.766Z,99.90
2022-08-01T10:43:48.765Z,99.90
2022-08-01T10:44:53.064Z,99.90
2022-08-01T10:45:57.201Z,99.90
2022-08-01T10:47:10.106Z,99.90
2022-08-01T10:48:20.614Z,99.90
2022-08-01T10:49:29.437Z,99.90
2022-08-01T10:50:35.835Z,99.90
2022-08-01T10:51:51.679Z,99.90
2022-08-01T10:53:15.954Z,99.90
2022-08-01T10:54:19.939Z,99.90
2022-08-01T10:55:25.777Z,99.90
2022-08-01T10:56:41.745Z,99.90
2022-08-01T10:57:52.665Z,99.90
2022-08-01T10:59:06.695Z,99.90
2022-08-01T11:00:19.746Z,99.90
2022-08-01T11:01:25.889Z,99.90
2022-08-01T11:02:32.769Z,99.90
2022-08-01T11:03:56.159Z,99.90
2022-08-01T11:05:06.625Z,99.90
2022-08-01T11:06:21.344Z,99.90
2022-08-01T11:07:37.898Z,99.90
2022-08-01T11:08:40.527Z,99.90
2022-08-01T11:09:51.408Z,99.90
2022-08-01T11:11:01.765Z,99.90
2022-08-01T11:12:13.295Z,99.90
2022-08-01T11:13:56.484Z,99.90
2022-08-01T11:15:31.823Z,99.90
2022-08-01T11:16:35.598Z,99.90
2022-08-01T11:17:42.340Z,99.90
2022-08-01T11:18:52.690Z,99.90
2022-08-01T11:20:11.881Z,99.90
2022-08-01T11:21:57.290Z,99.90
2022-08-01T11:23:25.720Z,99.90
2022-08-01T11:25:01.192Z,99.90
2022-08-01T11:26:29.131Z,99.90
2022-08-01T11:27:33.932Z,99.90
2022-08-01T11:28:40.668Z,99.90
2022-08-01T11:30:24.325Z,99.90
2022-08-01T11:31:37.667Z,99.90
2022-08-01T11:33:10.234Z,99.90
2022-08-01T11:34:11.719Z,99.90
2022-08-01T11:35:17.106Z,99.90
2022-08-01T11:36:55.985Z,99.90
2022-08-01T11:37:45.276Z,99.90
2022-08-01T11:38:49.417Z,99.90
2022-08-01T11:40:17.045Z,99.90
2022-08-01T11:41:37.350Z,99.90
2022-08-01T11:42:40.802Z,99.90
2022-08-01T11:43:56.657Z,99.90
2022-08-01T11:45:00.017Z,99.90
2022-08-01T11:46:03.826Z,99.90
2022-08-01T11:47:10.921Z,99.90
2022-08-01T11:48:20.034Z,99.90
2022-08-01T11:49:29.055Z,99.90
2022-08-01T11:50:35.386Z,99.90
2022-08-01T11:51:37.785Z,99.90
2022-08-01T11:52:43.377Z,99.90
2022-08-01T11:53:48.424Z,99.90
2022-08-01T11:54:52.837Z,99.90
2022-08-01T11:55:56.208Z,99.90
2022-08-01T11:56:59.967Z,99.90
2022-08-01T11:58:04.885Z,99.90
2022-08-01T11:59:07.674Z,99.90
2022-08-01T12:00:19.923Z,99.90
2022-08-01T12:01:23.512Z,99.90
2022-08-01T12:02:30.089Z,99.90
2022-08-01T12:03:36.530Z,99.90
2022-08-01T12:04:54.357Z,99.90
2022-08-01T12:05:58.961Z,99.90
2022-08-01T12:07:13.239Z,99.90
2022-08-01T12:08:26.820Z,99.90
2022-08-01T12:09:29.005Z,99.90
2022-08-01T12:10:47.026Z,99.90
2022-08-01T12:11:52.948Z,99.90
2022-08-01T12:12:58.540Z,99.90
2022-08-01T12:14:00.575Z,99.90
2022-08-01T12:15:06.325Z,99.90
2022-08-01T12:16:12.733Z,99.90
2022-08-01T12:17:16.175Z,99.90
2022-08-01T12:18:19.621Z,99.90
2022-08-01T12:19:23.253Z,99.90
2022-08-01T12:20:30.212Z,99.90
2022-08-01T12:21:34.261Z,99.90
2022-08-01T12:22:38.470Z,99.90
2022-08-01T12:23:44.463Z,99.90
2022-08-01T12:24:46.626Z,99.90
2022-08-01T12:25:54.119Z,99.90
2022-08-01T12:26:56.167Z,99.90
2022-08-01T12:28:02.495Z,99.90
2022-08-01T12:29:04.619Z,99.90
2022-08-01T12:30:09.860Z,99.90
2022-08-01T12:31:12.743Z,99.90
2022-08-01T12:32:33.802Z,99.90
2022-08-01T12:33:38.992Z,99.90
2022-08-01T12:34:41.107Z,99.90
2022-08-01T12:35:44.020Z,99.90
2022-08-01T12:36:47.807Z,99.90
2022-08-01T12:37:52.337Z,99.90
2022-08-01T12:38:54.426Z,99.90
2022-08-01T12:40:01.272Z,99.90
2022-08-01T12:41:12.590Z,99.90
2022-08-01T12:42:15.466Z,99.90
2022-08-01T12:43:27.155Z,99.90
2022-08-01T12:44:32.081Z,99.90
2022-08-01T12:45:37.018Z,99.90
2022-08-01T12:46:44.069Z,99.90
2022-08-01T12:47:48.431Z,99.90
2022-08-01T12:48:51.183Z,99.90
2022-08-01T12:49:54.812Z,99.90
2022-08-01T12:50:59.264Z,99.90
2022-08-01T12:52:04.556Z,99.90
2022-08-01T12:53:09.897Z,99.90
2022-08-01T12:54:18.842Z,99.90
2022-08-01T12:55:25.205Z,99.90
2022-08-01T12:56:36.649Z,99.90
2022-08-01T12:57:41.555Z,99.90
2022-08-01T12:58:44.482Z,99.90
2022-08-01T12:59:46.667Z,99.90
2022-08-01T13:00:51.843Z,99.90
2022-08-01T13:01:59.210Z,99.90
2022-08-01T13:03:06.213Z,99.90
2022-08-01T13:04:08.798Z,99.90
2022-08-01T13:05:13.185Z,99.90
2022-08-01T13:06:18.151Z,99.90
2022-08-01T13:07:21.781Z,99.90
2022-08-01T13:08:26.233Z,99.90
2022-08-01T13:09:29.338Z,99.90
2022-08-01T13:10:33.111Z,99.90
2022-08-01T13:11:35.412Z,99.90
2022-08-01T13:12:38.961Z,99.90
2022-08-01T13:13:43.886Z,99.90
2022-08-01T13:14:45.928Z,99.90
2022-08-01T13:15:48.912Z,99.90
2022-08-01T13:16:58.607Z,99.90
2022-08-01T13:18:03.915Z,99.90
2022-08-01T13:19:07.791Z,99.90
2022-08-01T13:20:10.564Z,99.90
2022-08-01T13:21:16.368Z,99.90
2022-08-01T13:22:18.741Z,99.90
2022-08-01T13:24:01.544Z,99.90
2022-08-01T13:24:46.246Z,99.90
2022-08-01T13:25:53.753Z,99.90
2022-08-01T13:27:02.213Z,99.90
2022-08-01T13:28:17.690Z,99.90
2022-08-01T13:29:22.486Z,99.90
2022-08-01T13:30:25.062Z,99.90
2022-08-01T13:31:34.458Z,99.90
2022-08-01T13:32:37.502Z,99.90
2022-08-01T13:33:45.099Z,99.90
2022-08-01T13:35:03.107Z,99.90
2022-08-01T13:36:06.760Z,99.90
2022-08-01T13:37:09.733Z,99.90
2022-08-01T13:38:11.785Z,99.90
2022-08-01T13:39:34.136Z,99.90
2022-08-01T13:40:37.464Z,99.90
2022-08-01T13:41:39.580Z,99.90
2022-08-01T13:42:42.549Z,99.90
2022-08-01T13:43:58.980Z,99.90
2022-08-01T13:45:03.784Z,99.90
2022-08-01T13:46:06.350Z,99.90
2022-08-01T13:47:15.139Z,99.90
2022-08-01T13:48:19.817Z,99.90
2022-08-01T13:49:23.088Z,99.90
2022-08-01T13:50:25.858Z,99.90
2022-08-01T13:51:28.842Z,99.90
2022-08-01T13:52:32.287Z,99.90
2022-08-01T13:53:34.468Z,99.90
2022-08-01T13:54:39.153Z,99.90
2022-08-01T13:55:41.300Z,99.90
2022-08-01T13:56:44.357Z,99.90
2022-08-01T13:57:47.321Z,99.90
2022-08-01T13:58:49.463Z,99.90
2022-08-01T13:59:53.408Z,99.90
2022-08-01T14:00:56.583Z,99.90
2022-08-01T14:01:59.695Z,99.90
2022-08-01T14:03:02.727Z,99.90
2022-08-01T14:04:09.013Z,99.90
2022-08-01T14:05:12.922Z,99.90
2022-08-01T14:06:17.097Z,99.90
2022-08-01T14:07:19.995Z,99.90
2022-08-01T14:08:23.488Z,99.90
2022-08-01T14:09:32.447Z,99.90
2022-08-01T14:10:37.035Z,99.90
2022-08-01T14:11:40.263Z,99.90
2022-08-01T14:12:49.511Z,99.90
2022-08-01T14:13:51.535Z,99.90
2022-08-01T14:14:54.588Z,99.90